Time;durP1;ratioP1;P1;durP2;ratioP2;P2;SDS_P1;SDS_P2;PMS_P1;PMS_P2;Temp;Humidity;BMP_temperature;BMP_pressure;BME280_temperature;BME280_humidity;BME280_pressure;Samples;Min_cycle;Max_cycle;Signal;HPM_P1;HPM_P2
2023/04/16 00:00:47;;;;;;;;;;;9.20;88.60;;;;;;5072230;28;19920;-35
2023/04/16 00:03:13;;;;;;;;;;;9.20;88.60;;;;;;5072405;28;20315;-34
2023/04/16 00:05:38;;;;;;;;;;;9.20;88.50;;;;;;5072326;28;19938;-35
2023/04/16 00:08:04;;;;;;;;;;;9.20;88.70;;;;;;5072507;28;19913;-35
2023/04/16 00:10:29;;;;;;;;;;;9.10;88.70;;;;;;5072201;28;20019;-35
2023/04/16 00:12:55;;;;;;;;;;;9.20;88.50;;;;;;5072294;28;20003;-35
2023/04/16 00:15:20;;;;;;;;;;;9.20;88.90;;;;;;5072067;28;19918;-35
2023/04/16 00:17:46;;;;;;;;;;;9.20;88.30;;;;;;5071963;28;19913;-35
2023/04/16 00:20:11;;;;;;;;;;;9.20;88.60;;;;;;5072010;28;19965;-35
2023/04/16 00:22:37;;;;;;;;;;;9.20;89.40;;;;;;5071985;28;19932;-33
2023/04/16 00:25:02;;;;;;;;;;;9.30;89.10;;;;;;5072088;28;19920;-35
2023/04/16 00:27:28;;;;;;;;;;;9.20;88.50;;;;;;5071758;28;19913;-34
2023/04/16 00:29:53;;;;;;;;;;;9.20;88.30;;;;;;5071740;28;20002;-35
2023/04/16 00:32:19;;;;;;;;;;;9.30;88.70;;;;;;5071806;28;20265;-35
2023/04/16 00:34:44;;;;;;;;;;;9.30;88.30;;;;;;5071323;28;19912;-35
2023/04/16 00:37:10;;;;;;;;;;;9.30;88.50;;;;;;5071754;28;19920;-35
2023/04/16 00:39:36;;;;;;;;;;;9.30;88.90;;;;;;5071650;28;19916;-35
2023/04/16 00:42:01;;;;;;;;;;;9.30;89.10;;;;;;5071753;28;19959;-35
2023/04/16 00:44:28;;;;;;;;;;;9.30;89.60;;;;;;5071678;28;19913;-33
2023/04/16 00:46:54;;;;;;;;;;;9.20;89.60;;;;;;5071652;28;20012;-34
2023/04/16 00:49:20;;;;;;;;;;;9.30;89.40;;;;;;5071569;28;20011;-35
2023/04/16 00:51:46;;;;;;;;;;;9.20;89.80;;;;;;5071315;28;20411;-34
2023/04/16 00:54:12;;;;;;;;;;;9.20;90.10;;;;;;5071341;28;19913;-35
2023/04/16 00:56:38;;;;;;;;;;;9.20;90.20;;;;;;5071293;28;20008;-35
2023/04/16 00:59:04;;;;;;;;;;;9.20;89.80;;;;;;5071442;28;20285;-35
2023/04/16 01:01:29;;;;;;;;;;;9.20;90.50;;;;;;5071635;28;19928;-35
2023/04/16 01:03:55;;;;;;;;;;;9.20;90.30;;;;;;5071151;28;19913;-33
2023/04/16 01:06:21;;;;;;;;;;;9.20;89.90;;;;;;5071461;28;19913;-35
2023/04/16 01:08:47;;;;;;;;;;;9.20;90.30;;;;;;5069919;28;19919;-34
2023/04/16 01:11:13;;;;;;;;;;;9.20;90.10;;;;;;5071356;28;20248;-37
2023/04/16 01:13:39;;;;;;;;;;;9.20;90.20;;;;;;5071364;28;19920;-35
2023/04/16 01:16:10;;;;;;;;;;;9.20;90.50;;;;;;5071153;28;20308;-35
2023/04/16 01:18:35;;;;;;;;;;;9.20;90.30;;;;;;5071037;28;19912;-34
2023/04/16 01:21:01;;;;;;;;;;;9.20;90.20;;;;;;5071358;28;19927;-35
2023/04/16 01:23:27;;;;;;;;;;;9.20;90.10;;;;;;5070828;28;19931;-36
2023/04/16 01:25:52;;;;;;;;;;;9.30;90.30;;;;;;5071166;28;19913;-35
2023/04/16 01:28:18;;;;;;;;;;;9.30;90.10;;;;;;5070724;28;19927;-35
2023/04/16 01:30:43;;;;;;;;;;;9.30;90.40;;;;;;5071304;28;20279;-35
2023/04/16 01:33:09;;;;;;;;;;;9.30;90.30;;;;;;5070775;28;19913;-35
2023/04/16 01:35:35;;;;;;;;;;;9.30;90.10;;;;;;5070818;28;19920;-35
2023/04/16 01:38:01;;;;;;;;;;;9.30;90.50;;;;;;5070710;28;20292;-35
2023/04/16 01:40:26;;;;;;;;;;;9.30;90.20;;;;;;5070611;28;20260;-35
2023/04/16 01:42:52;;;;;;;;;;;9.30;90.40;;;;;;5070725;28;20364;-34
2023/04/16 01:45:18;;;;;;;;;;;9.30;90.30;;;;;;5070695;28;20284;-35
2023/04/16 01:47:43;;;;;;;;;;;9.30;90.10;;;;;;5073651;28;19991;-34
2023/04/16 01:50:09;;;;;;;;;;;9.40;90.00;;;;;;5074774;28;20017;-35
2023/04/16 01:52:34;;;;;;;;;;;9.50;90.20;;;;;;5074749;28;19924;-35
2023/04/16 01:55:00;;;;;;;;;;;9.40;90.40;;;;;;5074449;28;19919;-35
2023/04/16 01:57:25;;;;;;;;;;;9.40;90.20;;;;;;5074566;28;20303;-35
2023/04/16 01:59:51;;;;;;;;;;;9.40;90.20;;;;;;5074538;28;19916;-35
2023/04/16 02:02:16;;;;;;;;;;;9.40;90.20;;;;;;5074475;28;20236;-35
2023/04/16 02:04:44;;;;;;;;;;;9.40;90.10;;;;;;5074846;28;19916;-37
2023/04/16 02:07:09;;;;;;;;;;;9.40;90.10;;;;;;5074331;28;19973;-35
2023/04/16 02:09:39;;;;;;;;;;;9.40;90.00;;;;;;5072614;28;19912;-35
2023/04/16 02:12:04;;;;;;;;;;;9.40;90.00;;;;;;5074368;28;19914;-35
2023/04/16 02:14:30;;;;;;;;;;;9.50;90.10;;;;;;5074426;28;20438;-35
2023/04/16 02:16:56;;;;;;;;;;;9.50;90.20;;;;;;5074213;28;19912;-34
2023/04/16 02:19:22;;;;;;;;;;;9.50;90.10;;;;;;5072854;28;19916;-35
2023/04/16 02:21:50;;;;;;;;;;;9.50;90.10;;;;;;5074123;28;20334;-34
2023/04/16 02:24:15;;;;;;;;;;;9.50;90.30;;;;;;5074189;28;19916;-35
2023/04/16 02:26:41;;;;;;;;;;;9.50;90.00;;;;;;5074338;28;19919;-35
2023/04/16 02:29:06;;;;;;;;;;;9.50;89.80;;;;;;5073993;28;20006;-34
2023/04/16 02:31:31;;;;;;;;;;;9.50;90.20;;;;;;5074075;28;19923;-35
2023/04/16 02:33:57;;;;;;;;;;;9.50;90.10;;;;;;5072501;28;19920;-35
2023/04/16 02:36:24;;;;;;;;;;;9.50;90.00;;;;;;5074064;28;19913;-35
2023/04/16 02:38:50;;;;;;;;;;;9.50;89.90;;;;;;5073951;28;19913;-35
2023/04/16 02:41:15;;;;;;;;;;;9.50;89.80;;;;;;5073706;28;19917;-35
2023/04/16 02:43:41;;;;;;;;;;;9.60;89.90;;;;;;5073991;28;19973;-37
2023/04/16 02:46:06;;;;;;;;;;;9.60;90.10;;;;;;5073849;28;19993;-35
2023/04/16 02:48:32;;;;;;;;;;;9.60;90.10;;;;;;5074000;28;19916;-35
2023/04/16 02:50:57;;;;;;;;;;;9.60;89.90;;;;;;5073866;28;20364;-33
2023/04/16 02:53:23;;;;;;;;;;;9.60;90.10;;;;;;5074071;28;19912;-35
2023/04/16 02:55:52;;;;;;;;;;;9.60;90.20;;;;;;5073932;28;19919;-33
2023/04/16 02:58:18;;;;;;;;;;;9.50;90.00;;;;;;5073299;28;19916;-34
2023/04/16 03:00:43;;;;;;;;;;;9.50;90.30;;;;;;5073706;28;19923;-34
2023/04/16 03:03:09;;;;;;;;;;;9.50;90.50;;;;;;5074003;28;20232;-35
2023/04/16 03:05:34;;;;;;;;;;;9.40;90.60;;;;;;5073729;28;19920;-34
2023/04/16 03:08:00;;;;;;;;;;;9.40;90.30;;;;;;5072262;28;19912;-34
2023/04/16 03:10:25;;;;;;;;;;;9.40;90.30;;;;;;5073333;28;19912;-34
2023/04/16 03:12:51;;;;;;;;;;;9.40;90.30;;;;;;5073274;28;19920;-36
2023/04/16 03:15:16;;;;;;;;;;;9.40;90.30;;;;;;5073361;28;19913;-35
2023/04/16 03:17:42;;;;;;;;;;;9.40;90.20;;;;;;5073439;28;20453;-35
2023/04/16 03:20:08;;;;;;;;;;;9.40;90.20;;;;;;5073095;28;19931;-33
2023/04/16 03:22:34;;;;;;;;;;;9.40;90.40;;;;;;5073324;28;19912;-27
2023/04/16 03:25:00;;;;;;;;;;;9.40;90.20;;;;;;5072877;28;20007;-36
2023/04/16 03:27:25;;;;;;;;;;;9.40;90.20;;;;;;5073049;28;19922;-27
2023/04/16 03:29:51;;;;;;;;;;;9.50;90.40;;;;;;5071401;28;20381;-27
2023/04/16 03:32:16;;;;;;;;;;;9.50;90.40;;;;;;5072728;28;19912;-28
2023/04/16 03:34:42;;;;;;;;;;;9.40;90.20;;;;;;5072671;28;19927;-27
2023/04/16 03:37:10;;;;;;;;;;;9.50;90.20;;;;;;5072541;28;19920;-26
2023/04/16 03:39:36;;;;;;;;;;;9.50;90.20;;;;;;5070974;28;20015;-31
2023/04/16 03:42:02;;;;;;;;;;;9.50;90.30;;;;;;5072650;28;19990;-28
2023/04/16 03:44:28;;;;;;;;;;;9.50;90.20;;;;;;5072498;28;20388;-31
2023/04/16 03:46:53;;;;;;;;;;;9.50;90.40;;;;;;5072607;28;19935;-28
2023/04/16 03:49:19;;;;;;;;;;;9.50;90.30;;;;;;5072819;28;19916;-27
2023/04/16 03:51:45;;;;;;;;;;;9.50;90.20;;;;;;5072524;28;19912;-28
2023/04/16 03:54:10;;;;;;;;;;;9.50;90.30;;;;;;5072302;28;19912;-26
2023/04/16 03:56:35;;;;;;;;;;;9.50;90.20;;;;;;5072225;28;20386;-29
2023/04/16 03:59:01;;;;;;;;;;;9.50;90.30;;;;;;5072330;28;19928;-28
2023/04/16 04:01:27;;;;;;;;;;;9.50;90.40;;;;;;5071977;28;20061;-28
2023/04/16 04:03:52;;;;;;;;;;;9.50;90.20;;;;;;5072047;28;19917;-29
2023/04/16 04:06:18;;;;;;;;;;;9.50;90.30;;;;;;5071941;28;19913;-28
2023/04/16 04:08:43;;;;;;;;;;;9.50;90.10;;;;;;5071368;28;19912;-26
2023/04/16 04:11:08;;;;;;;;;;;9.50;90.30;;;;;;5071918;28;19946;-26
2023/04/16 04:13:34;;;;;;;;;;;9.50;90.20;;;;;;5072059;28;20004;-26
2023/04/16 04:15:59;;;;;;;;;;;9.50;90.30;;;;;;5072245;28;19986;-27
2023/04/16 04:18:25;;;;;;;;;;;9.50;90.10;;;;;;5071759;28;20301;-27
2023/04/16 04:20:51;;;;;;;;;;;9.50;90.30;;;;;;5071892;28;19916;-25
2023/04/16 04:23:16;;;;;;;;;;;9.50;90.20;;;;;;5070223;28;20324;-31
2023/04/16 04:25:41;;;;;;;;;;;9.60;90.20;;;;;;5071410;28;19916;-25
2023/04/16 04:28:07;;;;;;;;;;;9.60;90.10;;;;;;5071514;28;19921;-28
2023/04/16 04:30:34;;;;;;;;;;;9.50;90.30;;;;;;5071572;28;19912;-28
2023/04/16 04:33:00;;;;;;;;;;;9.50;90.40;;;;;;5071589;28;19916;-27
2023/04/16 04:35:25;;;;;;;;;;;9.50;90.40;;;;;;5071399;28;20003;-27
2023/04/16 04:37:51;;;;;;;;;;;9.50;90.20;;;;;;5071524;28;19919;-40
2023/04/16 04:40:16;;;;;;;;;;;9.50;90.20;;;;;;5071388;28;20330;-29
2023/04/16 04:42:42;;;;;;;;;;;9.40;90.30;;;;;;5071515;28;19916;-34
2023/04/16 04:45:08;;;;;;;;;;;9.50;90.30;;;;;;5071423;28;20015;-37
2023/04/16 04:47:33;;;;;;;;;;;9.50;90.60;;;;;;5071518;28;19919;-26
2023/04/16 04:49:59;;;;;;;;;;;9.50;90.40;;;;;;5071439;28;19912;-26
2023/04/16 04:52:24;;;;;;;;;;;9.50;90.20;;;;;;5071569;28;19913;-27
2023/04/16 04:54:50;;;;;;;;;;;9.50;90.70;;;;;;5070077;28;20390;-27
2023/04/16 04:57:15;;;;;;;;;;;9.50;90.70;;;;;;5069892;28;20372;-30
2023/04/16 04:59:41;;;;;;;;;;;9.50;90.90;;;;;;5071311;28;19916;-26
2023/04/16 05:02:06;;;;;;;;;;;9.40;90.50;;;;;;5071260;28;19912;-27
2023/04/16 05:04:32;;;;;;;;;;;9.50;90.50;;;;;;5069693;28;19970;-27
2023/04/16 05:06:57;;;;;;;;;;;9.50;90.60;;;;;;5071103;28;19916;-30
2023/04/16 05:09:23;;;;;;;;;;;9.50;90.50;;;;;;5069683;28;19913;-27
2023/04/16 05:11:48;;;;;;;;;;;9.50;90.60;;;;;;5070773;28;19977;-29
2023/04/16 05:14:14;;;;;;;;;;;9.50;90.60;;;;;;5069346;28;20392;-27
2023/04/16 05:16:39;;;;;;;;;;;9.50;90.50;;;;;;5069518;28;19918;-37
2023/04/16 05:19:05;;;;;;;;;;;9.50;90.60;;;;;;5068804;28;20439;-26
2023/04/16 05:21:30;;;;;;;;;;;9.50;90.50;;;;;;5071252;28;19955;-27
2023/04/16 05:23:56;;;;;;;;;;;9.50;90.50;;;;;;5071166;28;19919;-28
2023/04/16 05:26:21;;;;;;;;;;;9.50;90.50;;;;;;5071295;28;19948;-31
2023/04/16 05:28:47;;;;;;;;;;;9.60;90.40;;;;;;5070775;28;19943;-31
2023/04/16 05:31:12;;;;;;;;;;;9.60;90.40;;;;;;5070989;28;19940;-31
2023/04/16 05:33:38;;;;;;;;;;;9.60;90.50;;;;;;5071107;28;19912;-29
2023/04/16 05:36:03;;;;;;;;;;;9.60;90.40;;;;;;5070877;28;19920;-32
2023/04/16 05:38:29;;;;;;;;;;;9.60;90.80;;;;;;5070855;28;19961;-30
2023/04/16 05:40:54;;;;;;;;;;;9.60;90.60;;;;;;5069228;28;19917;-28
2023/04/16 05:43:20;;;;;;;;;;;9.60;90.50;;;;;;5070836;28;20439;-30
2023/04/16 05:45:45;;;;;;;;;;;9.60;90.80;;;;;;5070937;28;19920;-31
2023/04/16 05:48:12;;;;;;;;;;;9.60;90.60;;;;;;5069467;28;19985;-27
2023/04/16 05:50:38;;;;;;;;;;;9.60;90.60;;;;;;5071108;28;19982;-31
2023/04/16 05:53:04;;;;;;;;;;;9.60;90.60;;;;;;5070905;28;20380;-29
2023/04/16 05:55:30;;;;;;;;;;;9.60;90.60;;;;;;5071075;28;19919;-30
2023/04/16 05:57:55;;;;;;;;;;;9.60;90.70;;;;;;5070913;28;19912;-28
2023/04/16 06:00:21;;;;;;;;;;;9.60;90.80;;;;;;5070853;28;20273;-27
2023/04/16 06:02:46;;;;;;;;;;;9.70;90.60;;;;;;5070725;28;19948;-40
2023/04/16 06:05:12;;;;;;;;;;;9.60;90.50;;;;;;5070771;28;19920;-27
2023/04/16 06:07:37;;;;;;;;;;;9.70;90.60;;;;;;5070582;28;20390;-30
2023/04/16 06:10:03;;;;;;;;;;;9.70;90.60;;;;;;5070630;28;20283;-27
2023/04/16 06:12:28;;;;;;;;;;;9.70;90.50;;;;;;5070774;28;19919;-34
2023/04/16 06:14:54;;;;;;;;;;;9.80;90.60;;;;;;5070850;28;20046;-28
2023/04/16 06:17:20;;;;;;;;;;;9.80;90.50;;;;;;5070880;28;20352;-34
2023/04/16 06:19:45;;;;;;;;;;;9.90;90.50;;;;;;5070572;28;19916;-35
2023/04/16 06:22:11;;;;;;;;;;;9.90;90.30;;;;;;5070578;28;20446;-29
2023/04/16 06:24:36;;;;;;;;;;;9.90;90.30;;;;;;5070625;28;19912;-30
2023/04/16 06:27:02;;;;;;;;;;;9.90;90.20;;;;;;5070585;28;19923;-27
2023/04/16 06:29:27;;;;;;;;;;;9.90;90.20;;;;;;5070343;28;19920;-27
2023/04/16 06:31:53;;;;;;;;;;;10.00;90.20;;;;;;5069020;28;19913;-28
2023/04/16 06:34:18;;;;;;;;;;;10.00;90.10;;;;;;5074099;28;19913;-27
2023/04/16 06:36:44;;;;;;;;;;;10.10;90.10;;;;;;5074080;28;20309;-27
2023/04/16 06:39:10;;;;;;;;;;;10.10;90.10;;;;;;5073845;28;19916;-27
2023/04/16 06:41:35;;;;;;;;;;;10.10;90.00;;;;;;5074253;28;19927;-27
2023/04/16 06:44:01;;;;;;;;;;;10.10;90.00;;;;;;5074431;28;20446;-28
2023/04/16 06:46:26;;;;;;;;;;;10.20;89.90;;;;;;5074711;28;19912;-28
2023/04/16 06:48:52;;;;;;;;;;;10.20;89.80;;;;;;5074303;28;19916;-27
2023/04/16 06:51:17;;;;;;;;;;;10.20;89.70;;;;;;5074202;28;20003;-31
2023/04/16 06:53:43;;;;;;;;;;;10.30;89.80;;;;;;5074299;28;19912;-27
2023/04/16 06:56:08;;;;;;;;;;;10.30;89.60;;;;;;5074396;28;20007;-28
2023/04/16 06:58:34;;;;;;;;;;;10.30;89.60;;;;;;5074332;28;19920;-27
2023/04/16 07:01:01;;;;;;;;;;;10.30;89.40;;;;;;5073967;28;20414;-30
2023/04/16 07:03:26;;;;;;;;;;;10.40;89.30;;;;;;5074302;28;20237;-31
2023/04/16 07:05:52;;;;;;;;;;;10.40;89.20;;;;;;5074263;28;19912;-27
2023/04/16 07:08:17;;;;;;;;;;;10.40;89.00;;;;;;5074163;28;20366;-30
2023/04/16 07:10:43;;;;;;;;;;;10.40;89.00;;;;;;5074197;28;20246;-28
2023/04/16 07:13:09;;;;;;;;;;;10.50;89.00;;;;;;5073990;28;19917;-28
2023/04/16 07:15:34;;;;;;;;;;;10.50;89.00;;;;;;5073982;28;19919;-27
2023/04/16 07:18:00;;;;;;;;;;;10.50;89.00;;;;;;5073816;28;19908;-27
2023/04/16 07:20:25;;;;;;;;;;;10.60;88.90;;;;;;5073656;28;19912;-27
2023/04/16 07:22:51;;;;;;;;;;;10.70;88.70;;;;;;5073742;28;19912;-32
2023/04/16 07:25:16;;;;;;;;;;;10.70;88.60;;;;;;5073759;28;19916;-30
2023/04/16 07:27:42;;;;;;;;;;;10.70;88.40;;;;;;5073692;28;20268;-27
2023/04/16 07:30:08;;;;;;;;;;;10.80;88.30;;;;;;5074002;28;20057;-28
2023/04/16 07:32:33;;;;;;;;;;;10.80;88.20;;;;;;5073714;28;20318;-27
2023/04/16 07:34:59;;;;;;;;;;;10.80;88.10;;;;;;5073761;28;19916;-28
2023/04/16 07:37:24;;;;;;;;;;;10.80;88.00;;;;;;5073765;28;19908;-33
2023/04/16 07:39:51;;;;;;;;;;;10.80;87.90;;;;;;5073581;28;19912;-28
2023/04/16 07:42:16;;;;;;;;;;;10.80;87.80;;;;;;5073663;28;19935;-27
2023/04/16 07:44:42;;;;;;;;;;;10.90;87.80;;;;;;5073578;28;20221;-28
2023/04/16 07:47:08;;;;;;;;;;;10.90;87.70;;;;;;5073456;28;19952;-33
2023/04/16 07:49:33;;;;;;;;;;;10.90;87.60;;;;;;5073431;28;19909;-27
2023/04/16 07:51:59;;;;;;;;;;;10.90;87.60;;;;;;5073422;28;19916;-28
2023/04/16 07:54:24;;;;;;;;;;;11.10;87.50;;;;;;5073367;28;19908;-29
2023/04/16 07:56:51;;;;;;;;;;;11.10;87.30;;;;;;5073182;28;20383;-28
2023/04/16 07:59:16;;;;;;;;;;;11.20;87.20;;;;;;5073341;28;19929;-29
2023/04/16 08:01:41;;;;;;;;;;;11.20;86.90;;;;;;5073153;28;19916;-28
2023/04/16 08:04:07;;;;;;;;;;;11.10;86.90;;;;;;5073060;28;19909;-30
2023/04/16 08:06:32;;;;;;;;;;;11.20;86.90;;;;;;5073230;28;20015;-27
2023/04/16 08:08:58;;;;;;;;;;;11.20;86.80;;;;;;5072860;28;19908;-30
2023/04/16 08:11:23;;;;;;;;;;;11.20;86.70;;;;;;5072895;28;19916;-28
2023/04/16 08:13:49;;;;;;;;;;;11.20;86.50;;;;;;5073083;28;20282;-27
2023/04/16 08:16:14;;;;;;;;;;;11.20;86.40;;;;;;5071147;28;19919;-32
2023/04/16 08:18:40;;;;;;;;;;;11.20;86.40;;;;;;5072815;28;19916;-28
2023/04/16 08:21:05;;;;;;;;;;;11.20;86.50;;;;;;5072711;28;20021;-31
2023/04/16 08:23:31;;;;;;;;;;;11.20;86.30;;;;;;5072497;28;19973;-28
2023/04/16 08:25:57;;;;;;;;;;;11.20;86.30;;;;;;5072509;28;19959;-31
2023/04/16 08:28:22;;;;;;;;;;;11.20;86.40;;;;;;5072300;28;19927;-28
2023/04/16 08:30:47;;;;;;;;;;;11.30;86.40;;;;;;5072375;28;20416;-28
2023/04/16 08:33:13;;;;;;;;;;;11.30;86.20;;;;;;5072375;28;19908;-31
2023/04/16 08:35:39;;;;;;;;;;;11.40;86.20;;;;;;5072410;28;19915;-29
2023/04/16 08:38:06;;;;;;;;;;;11.40;86.00;;;;;;5072269;28;19908;-31
2023/04/16 08:40:33;;;;;;;;;;;11.50;86.00;;;;;;5072174;28;19920;-35
2023/04/16 08:43:01;;;;;;;;;;;11.50;85.90;;;;;;5072280;28;20383;-31
2023/04/16 08:45:27;;;;;;;;;;;11.50;85.50;;;;;;5072428;28;19908;-28
2023/04/16 08:47:52;;;;;;;;;;;11.50;85.30;;;;;;5072609;28;20119;-28
2023/04/16 08:50:22;;;;;;;;;;;11.50;85.50;;;;;;5072421;28;20053;-30
2023/04/16 08:53:05;;;;;;;;;;;11.50;85.60;;;;;;5072378;28;19908;-27
2023/04/16 08:55:38;;;;;;;;;;;11.60;85.50;;;;;;5072278;28;19909;-28
2023/04/16 08:58:13;;;;;;;;;;;11.70;85.30;;;;;;5072148;28;19955;-28
2023/04/16 09:00:39;;;;;;;;;;;11.70;84.80;;;;;;5072198;28;19912;-31
2023/04/16 09:03:06;;;;;;;;;;;11.70;85.00;;;;;;5072239;28;19909;-31
2023/04/16 09:05:32;;;;;;;;;;;11.80;85.10;;;;;;5072188;28;20380;-28
2023/04/16 09:07:57;;;;;;;;;;;11.90;84.90;;;;;;5072196;28;19943;-27
2023/04/16 09:10:25;;;;;;;;;;;12.00;84.80;;;;;;5072002;28;19908;-27
2023/04/16 09:12:50;;;;;;;;;;;12.00;84.40;;;;;;5072197;28;19934;-30
2023/04/16 09:15:19;;;;;;;;;;;12.10;84.40;;;;;;5072061;28;19951;-27
2023/04/16 09:17:44;;;;;;;;;;;12.20;84.30;;;;;;5072123;28;19931;-26
2023/04/16 09:20:11;;;;;;;;;;;12.30;84.20;;;;;;5072070;28;19912;-28
2023/04/16 09:22:37;;;;;;;;;;;12.30;83.90;;;;;;5072032;28;19909;-28
2023/04/16 09:25:03;;;;;;;;;;;12.30;83.90;;;;;;5072009;28;19912;-28
2023/04/16 09:27:29;;;;;;;;;;;12.40;83.80;;;;;;5071979;28;19908;-28
2023/04/16 09:29:54;;;;;;;;;;;12.30;83.40;;;;;;5071950;28;19913;-27
2023/04/16 09:32:23;;;;;;;;;;;12.30;84.30;;;;;;5072273;28;19916;-30
2023/04/16 09:35:01;;;;;;;;;;;12.40;83.20;;;;;;5072349;28;19908;-31
2023/04/16 09:37:30;;;;;;;;;;;12.40;83.40;;;;;;5072138;28;19909;-27
2023/04/16 09:39:55;;;;;;;;;;;12.50;83.10;;;;;;5071970;28;19912;-29
2023/04/16 09:42:26;;;;;;;;;;;12.40;83.00;;;;;;5072054;28;19908;-28
2023/04/16 09:44:52;;;;;;;;;;;12.40;82.40;;;;;;5071825;28;19944;-27
2023/04/16 09:47:17;;;;;;;;;;;12.40;82.90;;;;;;5071747;28;19951;-28
2023/04/16 09:49:43;;;;;;;;;;;12.40;83.00;;;;;;5071866;28;19992;-27
2023/04/16 09:52:16;;;;;;;;;;;12.60;83.00;;;;;;5071896;28;20420;-27
2023/04/16 09:54:48;;;;;;;;;;;12.90;82.70;;;;;;5071921;28;19948;-28
2023/04/16 09:57:17;;;;;;;;;;;13.00;82.30;;;;;;5071837;28;19909;-31
2023/04/16 09:59:42;;;;;;;;;;;13.10;81.80;;;;;;5071736;28;19920;-34
2023/04/16 10:02:08;;;;;;;;;;;13.10;80.70;;;;;;5072372;28;19909;-30
2023/04/16 10:04:47;;;;;;;;;;;13.20;81.20;;;;;;5072146;28;19913;-30
2023/04/16 10:07:12;;;;;;;;;;;13.20;80.80;;;;;;5072119;28;19939;-30
2023/04/16 10:09:38;;;;;;;;;;;13.20;80.50;;;;;;5075579;28;19920;-29
2023/04/16 10:12:04;;;;;;;;;;;13.20;80.90;;;;;;5074148;28;20402;-27
2023/04/16 10:14:30;;;;;;;;;;;13.20;81.00;;;;;;5075612;28;19944;-28
2023/04/16 10:16:55;;;;;;;;;;;13.30;80.40;;;;;;5074984;28;20258;-29
2023/04/16 10:19:21;;;;;;;;;;;13.40;80.50;;;;;;5075209;28;19999;-29
2023/04/16 10:21:47;;;;;;;;;;;13.50;80.60;;;;;;5075166;28;20046;-27
2023/04/16 10:24:15;;;;;;;;;;;13.70;80.30;;;;;;5075257;28;19971;-31
2023/04/16 10:26:40;;;;;;;;;;;13.80;78.90;;;;;;5074955;28;20298;-29
2023/04/16 10:29:07;;;;;;;;;;;13.90;78.80;;;;;;5074948;28;19920;-30
2023/04/16 10:31:33;;;;;;;;;;;13.90;77.90;;;;;;5074803;28;20354;-32
2023/04/16 10:33:59;;;;;;;;;;;13.80;78.10;;;;;;5074870;28;19959;-31
2023/04/16 10:36:26;;;;;;;;;;;13.80;78.30;;;;;;5075044;28;19908;-28
2023/04/16 10:38:52;;;;;;;;;;;13.80;78.10;;;;;;5074907;28;20008;-29
2023/04/16 10:41:21;;;;;;;;;;;13.80;78.10;;;;;;5074952;28;19912;-28
2023/04/16 10:43:47;;;;;;;;;;;13.80;78.30;;;;;;5074821;28;20349;-33
2023/04/16 10:46:18;;;;;;;;;;;13.80;78.50;;;;;;5074726;28;19962;-29
2023/04/16 10:48:44;;;;;;;;;;;13.90;79.40;;;;;;5074930;28;19909;-28
2023/04/16 10:51:22;;;;;;;;;;;13.90;77.50;;;;;;5074762;28;20222;-27
2023/04/16 10:53:47;;;;;;;;;;;13.90;77.80;;;;;;5074823;28;20536;-37
2023/04/16 10:56:14;;;;;;;;;;;13.90;77.60;;;;;;5074494;28;19909;-32
2023/04/16 10:58:40;;;;;;;;;;;14.00;77.50;;;;;;5074641;28;19958;-30
2023/04/16 11:01:06;;;;;;;;;;;14.10;77.70;;;;;;5074443;28;20317;-28
2023/04/16 11:03:32;;;;;;;;;;;14.30;77.70;;;;;;5074603;28;20447;-31
2023/04/16 11:06:11;;;;;;;;;;;14.30;76.50;;;;;;5074647;28;19909;-27
2023/04/16 11:08:38;;;;;;;;;;;14.40;76.50;;;;;;5074399;28;19908;-30
2023/04/16 11:11:04;;;;;;;;;;;14.50;76.60;;;;;;5074517;28;19951;-30
2023/04/16 11:13:30;;;;;;;;;;;14.70;76.70;;;;;;5074522;28;19908;-32
2023/04/16 11:15:56;;;;;;;;;;;14.80;74.80;;;;;;5074477;28;20255;-30
2023/04/16 11:18:22;;;;;;;;;;;14.80;75.60;;;;;;5073888;28;19909;-29
2023/04/16 11:20:47;;;;;;;;;;;14.80;75.30;;;;;;5074298;28;19912;-29
2023/04/16 11:23:13;;;;;;;;;;;14.80;75.10;;;;;;5074404;28;19908;-28
2023/04/16 11:25:38;;;;;;;;;;;14.80;76.00;;;;;;5074281;28;20420;-31
2023/04/16 11:28:04;;;;;;;;;;;14.90;75.40;;;;;;5073765;28;20357;-28
2023/04/16 11:30:30;;;;;;;;;;;15.00;74.50;;;;;;5074201;28;19916;-31
2023/04/16 11:32:56;;;;;;;;;;;15.00;73.40;;;;;;5074022;28;19916;-30
2023/04/16 11:35:21;;;;;;;;;;;15.00;73.90;;;;;;5074070;28;19909;-31
2023/04/16 11:37:47;;;;;;;;;;;15.00;74.10;;;;;;5074134;28;19909;-26
2023/04/16 11:40:13;;;;;;;;;;;15.10;72.90;;;;;;5073788;28;20539;-30
2023/04/16 11:42:39;;;;;;;;;;;15.00;73.00;;;;;;5074096;28;19999;-32
2023/04/16 11:45:05;;;;;;;;;;;15.00;73.30;;;;;;5073980;28;19957;-30
2023/04/16 11:47:31;;;;;;;;;;;15.00;72.70;;;;;;5073986;28;19915;-34
2023/04/16 11:49:57;;;;;;;;;;;14.80;73.10;;;;;;5073668;28;20356;-32
2023/04/16 11:52:31;;;;;;;;;;;14.80;73.50;;;;;;5073670;28;19909;-35
2023/04/16 11:54:57;;;;;;;;;;;14.80;73.60;;;;;;5073671;28;19958;-33
2023/04/16 11:57:29;;;;;;;;;;;14.80;73.00;;;;;;5073600;28;19915;-30
2023/04/16 11:59:56;;;;;;;;;;;14.90;73.00;;;;;;5073437;28;19912;-28
2023/04/16 12:02:37;;;;;;;;;;;15.00;73.30;;;;;;5073573;28;20345;-30
2023/04/16 12:05:03;;;;;;;;;;;15.00;72.20;;;;;;5073167;28;19919;-28
2023/04/16 12:07:28;;;;;;;;;;;15.00;71.80;;;;;;5073761;28;20337;-32
2023/04/16 12:10:04;;;;;;;;;;;15.00;71.60;;;;;;5073444;28;19915;-31
2023/04/16 12:12:31;;;;;;;;;;;15.00;72.30;;;;;;5073498;28;20019;-29
2023/04/16 12:14:58;;;;;;;;;;;15.10;72.40;;;;;;5073300;28;19914;-28
2023/04/16 12:17:24;;;;;;;;;;;15.20;72.30;;;;;;5073422;28;19919;-32
2023/04/16 12:19:59;;;;;;;;;;;15.30;72.00;;;;;;5073330;28;19912;-31
2023/04/16 12:22:26;;;;;;;;;;;15.30;71.30;;;;;;5073321;28;19912;-31
2023/04/16 12:24:56;;;;;;;;;;;15.20;70.40;;;;;;5073181;28;19909;-34
2023/04/16 12:27:25;;;;;;;;;;;15.20;71.50;;;;;;5073156;28;19915;-30
2023/04/16 12:30:04;;;;;;;;;;;15.20;71.90;;;;;;5072277;28;20312;-30
2023/04/16 12:32:29;;;;;;;;;;;15.30;72.10;;;;;;5073111;28;20525;-33
2023/04/16 12:34:55;;;;;;;;;;;15.40;71.40;;;;;;5073014;28;19957;-29
2023/04/16 12:37:20;;;;;;;;;;;15.40;70.90;;;;;;5072962;28;19909;-27
2023/04/16 12:39:46;;;;;;;;;;;15.50;70.80;;;;;;5072628;28;19943;-27
2023/04/16 12:42:11;;;;;;;;;;;15.60;70.80;;;;;;5072807;28;19913;-35
2023/04/16 12:44:37;;;;;;;;;;;15.60;69.80;;;;;;5072776;28;19909;-31
2023/04/16 12:47:04;;;;;;;;;;;15.60;70.70;;;;;;5072794;28;20272;-27
2023/04/16 12:49:29;;;;;;;;;;;15.60;69.70;;;;;;5072758;28;19999;-28
2023/04/16 12:51:55;;;;;;;;;;;15.60;69.30;;;;;;5072587;28;19951;-30
2023/04/16 12:54:20;;;;;;;;;;;15.50;70.00;;;;;;5072760;28;19952;-28
2023/04/16 12:56:46;;;;;;;;;;;15.40;69.70;;;;;;5072682;28;20397;-28
2023/04/16 12:59:11;;;;;;;;;;;15.30;69.80;;;;;;5072676;28;20035;-28
2023/04/16 13:01:37;;;;;;;;;;;15.30;70.20;;;;;;5072819;28;20256;-31
2023/04/16 13:04:03;;;;;;;;;;;15.20;70.60;;;;;;5072596;28;19919;-30
2023/04/16 13:06:31;;;;;;;;;;;15.30;70.70;;;;;;5072563;28;19952;-29
2023/04/16 13:08:56;;;;;;;;;;;15.30;70.70;;;;;;5072516;28;19908;-30
2023/04/16 13:11:22;;;;;;;;;;;15.30;70.80;;;;;;5072578;28;19915;-31
2023/04/16 13:13:48;;;;;;;;;;;15.30;70.80;;;;;;5072504;28;19912;-34
2023/04/16 13:16:13;;;;;;;;;;;15.30;70.60;;;;;;5072431;28;19916;-31
2023/04/16 13:18:39;;;;;;;;;;;15.30;70.60;;;;;;5072311;28;19913;-28
2023/04/16 13:21:05;;;;;;;;;;;15.40;70.40;;;;;;5072233;28;19917;-29
2023/04/16 13:23:30;;;;;;;;;;;15.40;70.10;;;;;;5070981;28;20002;-32
2023/04/16 13:25:56;;;;;;;;;;;15.40;70.50;;;;;;5072382;28;20368;-28
2023/04/16 13:28:21;;;;;;;;;;;15.50;70.70;;;;;;5072324;28;19924;-30
2023/04/16 13:30:47;;;;;;;;;;;15.60;69.70;;;;;;5070987;28;19909;-28
2023/04/16 13:33:12;;;;;;;;;;;15.70;68.90;;;;;;5072281;28;20506;-28
2023/04/16 13:35:38;;;;;;;;;;;15.70;69.50;;;;;;5072338;28;19909;-28
2023/04/16 13:38:04;;;;;;;;;;;15.70;69.20;;;;;;5072445;28;19973;-27
2023/04/16 13:40:30;;;;;;;;;;;15.70;68.10;;;;;;5072299;28;19913;-30
2023/04/16 13:42:55;;;;;;;;;;;15.60;68.50;;;;;;5075937;28;19922;-33
2023/04/16 13:45:21;;;;;;;;;;;15.50;69.00;;;;;;5076291;28;19970;-27
2023/04/16 13:47:46;;;;;;;;;;;15.50;69.70;;;;;;5074985;28;19913;-30
2023/04/16 13:50:12;;;;;;;;;;;15.40;69.60;;;;;;5076301;28;19940;-34
2023/04/16 13:52:37;;;;;;;;;;;15.40;70.00;;;;;;5076044;28;20387;-36
2023/04/16 13:55:03;;;;;;;;;;;15.50;69.90;;;;;;5076159;28;19909;-29
2023/04/16 13:57:29;;;;;;;;;;;15.40;69.30;;;;;;5075958;28;20016;-27
2023/04/16 13:59:54;;;;;;;;;;;15.40;69.90;;;;;;5075868;28;19920;-32
2023/04/16 14:02:20;;;;;;;;;;;15.30;69.90;;;;;;5075785;28;19909;-28
2023/04/16 14:04:46;;;;;;;;;;;15.30;70.30;;;;;;5075759;28;19908;-29
2023/04/16 14:07:11;;;;;;;;;;;15.40;70.40;;;;;;5075800;28;19909;-33
2023/04/16 14:09:37;;;;;;;;;;;15.40;69.50;;;;;;5075523;28;19912;-27
2023/04/16 14:12:02;;;;;;;;;;;15.40;70.20;;;;;;5075436;28;20428;-30
2023/04/16 14:14:28;;;;;;;;;;;15.50;70.40;;;;;;5075431;28;19916;-33
2023/04/16 14:16:54;;;;;;;;;;;15.50;69.50;;;;;;5075414;28;19908;-34